Main page
METAR-TAF:

METAR-TAF

Airports :

Meriden Markham Municipal Airport

Meriden, Connecticut, United States

latitude: 41-30-35N, longitude: 072-49-40W, elevation: 102 ft

Current weather observation

The report was made 1 hour and 9 minutes ago, at 20:53 UTC
Wind 13 mph from the Northeast with gusts up to 18 mph, varying between North and East/Northeast
Temperature 54°F
Humidity 35%
Pressure 29.70 in. Hg
Visibility: 10 miles
Clear sky

METAR: KMMK 012053Z AUTO 04011G16KT 010V070 10SM CLR 12/M03 A2970 RMK AO2 SLP059 T01171028 56018

Time: 18:02 (22:02 UTC)


TAF: missing

Weather observations and forecasts of more than 4000 airports (METAR and TAF reports).

The available stations are represented by yellow and red dots on the map.

Hover mouse over dot to see the name of the station.

Then click to see weather observations and forecasts.

To change the map : click on the green buttons with a black cross to zoom in, on the green button with a dash to zoom out, or on the green arrows for adjacent maps.


METAR-TAF: